createdAt,value
2018-02-13T00:00:48.907Z,0.00
2018-02-13T00:01:48.929Z,0.00
2018-02-13T00:02:48.954Z,0.00
2018-02-13T00:03:48.976Z,0.00
2018-02-13T00:04:48.996Z,0.00
2018-02-13T00:05:49.023Z,0.00
2018-02-13T00:06:49.047Z,0.00
2018-02-13T00:07:49.114Z,0.00
2018-02-13T00:08:49.088Z,0.00
2018-02-13T00:09:49.109Z,0.00
2018-02-13T00:10:49.134Z,0.00
2018-02-13T00:11:49.155Z,0.00
2018-02-13T00:12:49.177Z,0.00
2018-02-13T00:13:49.200Z,0.00
2018-02-13T00:14:49.223Z,0.00
2018-02-13T00:15:49.246Z,0.00
2018-02-13T00:16:49.266Z,0.00
2018-02-13T00:17:49.288Z,0.00
2018-02-13T00:18:49.313Z,0.00
2018-02-13T00:19:49.335Z,0.00
2018-02-13T00:20:49.355Z,0.00
2018-02-13T00:21:49.379Z,0.00
2018-02-13T00:33:49.647Z,0.00
2018-02-13T00:34:49.669Z,0.00
2018-02-13T00:35:49.693Z,0.00
2018-02-13T00:36:49.714Z,0.00
2018-02-13T00:37:49.736Z,0.00
2018-02-13T00:38:49.759Z,0.00
2018-02-13T00:39:49.780Z,0.00
2018-02-13T00:40:49.802Z,0.00
2018-02-13T00:41:49.825Z,0.00
2018-02-13T00:42:49.849Z,0.00
2018-02-13T00:43:49.870Z,0.00
2018-02-13T00:44:49.891Z,0.00
2018-02-13T00:45:49.914Z,0.00
2018-02-13T00:46:49.935Z,0.00
2018-02-13T00:47:49.958Z,0.00
2018-02-13T00:48:50.097Z,0.00
2018-02-13T00:49:50.004Z,0.00
2018-02-13T00:50:50.026Z,0.00
2018-02-13T00:51:50.047Z,0.00
2018-02-13T00:52:50.068Z,0.00
2018-02-13T00:53:50.091Z,0.00
2018-02-13T00:54:50.113Z,0.00
2018-02-13T00:55:50.136Z,0.00
2018-02-13T00:56:50.157Z,0.00
2018-02-13T00:57:50.179Z,0.00
2018-02-13T00:58:50.202Z,0.00
2018-02-13T00:59:50.225Z,0.00
2018-02-13T01:00:50.248Z,0.00
2018-02-13T01:01:50.268Z,0.00
2018-02-13T01:02:50.290Z,0.00
2018-02-13T01:03:50.312Z,0.00
2018-02-13T01:04:50.334Z,0.00
2018-02-13T01:05:50.355Z,0.00
2018-02-13T01:06:50.379Z,0.00
2018-02-13T01:07:50.404Z,0.00
2018-02-13T01:08:50.422Z,0.00
2018-02-13T01:09:50.444Z,0.00
2018-02-13T01:10:50.467Z,0.00
2018-02-13T01:11:50.489Z,0.00
2018-02-13T01:12:50.511Z,0.00
2018-02-13T01:13:50.533Z,0.00
2018-02-13T01:14:50.554Z,0.00
2018-02-13T01:15:50.577Z,0.00
2018-02-13T01:16:50.599Z,0.00
2018-02-13T01:17:50.622Z,0.00
2018-02-13T01:18:50.643Z,0.00
2018-02-13T01:19:50.664Z,0.00
2018-02-13T01:20:50.688Z,0.00
2018-02-13T01:21:50.709Z,0.00
2018-02-13T01:22:50.732Z,0.00
2018-02-13T01:23:50.754Z,0.00
2018-02-13T01:24:50.775Z,0.00
2018-02-13T01:25:50.797Z,0.00
2018-02-13T01:26:50.820Z,0.00
2018-02-13T01:27:50.842Z,0.00
2018-02-13T01:28:50.863Z,0.00
2018-02-13T01:29:50.886Z,0.00
2018-02-13T01:30:50.908Z,0.00
2018-02-13T01:31:50.929Z,0.00
2018-02-13T01:32:50.952Z,0.00
2018-02-13T01:33:50.974Z,0.00
2018-02-13T01:34:50.997Z,0.00
2018-02-13T01:35:51.018Z,0.00
2018-02-13T01:36:51.039Z,0.00
2018-02-13T01:37:51.061Z,0.00
2018-02-13T01:38:51.083Z,0.00
2018-02-13T01:39:51.106Z,0.00
2018-02-13T01:40:51.128Z,0.00
2018-02-13T01:41:51.149Z,0.00
2018-02-13T01:42:51.171Z,0.00
2018-02-13T01:43:51.192Z,0.00
2018-02-13T01:44:51.219Z,0.00
2018-02-13T01:45:51.237Z,0.00
2018-02-13T01:46:51.259Z,0.00
2018-02-13T01:47:51.282Z,0.00
2018-02-13T01:48:51.302Z,0.00
2018-02-13T01:49:51.325Z,0.00
2018-02-13T01:50:51.347Z,0.00
2018-02-13T01:51:51.369Z,0.00
2018-02-13T01:52:51.390Z,0.00
2018-02-13T01:53:51.412Z,0.00
2018-02-13T01:54:51.436Z,0.00
2018-02-13T01:55:51.455Z,0.00
2018-02-13T01:56:51.477Z,0.00
2018-02-13T01:57:51.500Z,0.00
2018-02-13T01:58:51.522Z,0.00
2018-02-13T01:59:51.545Z,0.00
2018-02-13T02:00:51.566Z,0.00
2018-02-13T02:01:51.587Z,0.00
2018-02-13T02:02:51.610Z,0.00
2018-02-13T02:03:51.631Z,0.00
2018-02-13T02:04:51.653Z,0.00
2018-02-13T02:05:51.675Z,0.00
2018-02-13T02:06:51.696Z,0.00
2018-02-13T02:07:51.719Z,0.00
2018-02-13T02:08:51.740Z,0.00
2018-02-13T02:09:51.762Z,0.00
2018-02-13T02:10:51.785Z,0.00
2018-02-13T02:11:51.807Z,0.00
2018-02-13T02:12:51.828Z,0.00
2018-02-13T02:13:51.863Z,0.00
2018-02-13T02:14:51.872Z,0.00
2018-02-13T02:15:51.894Z,0.00
2018-02-13T02:16:51.915Z,0.00
2018-02-13T02:17:51.938Z,0.00
2018-02-13T02:18:51.958Z,0.00
2018-02-13T02:19:51.981Z,0.00
2018-02-13T02:20:52.005Z,0.00
2018-02-13T02:21:52.024Z,0.00
2018-02-13T02:22:52.047Z,0.00
2018-02-13T02:23:52.070Z,0.00
2018-02-13T02:24:52.090Z,0.00
2018-02-13T02:25:52.112Z,0.00
2018-02-13T02:26:52.134Z,0.00
2018-02-13T02:27:52.156Z,0.00
2018-02-13T02:28:52.177Z,0.00
2018-02-13T02:29:52.198Z,0.00
2018-02-13T02:30:52.222Z,0.00
2018-02-13T02:31:52.244Z,0.00
2018-02-13T02:32:52.265Z,0.00
2018-02-13T02:33:52.287Z,0.00
2018-02-13T02:34:52.310Z,0.00
2018-02-13T02:35:52.331Z,0.00
2018-02-13T02:36:52.352Z,0.00
2018-02-13T02:37:52.374Z,0.00
2018-02-13T02:38:52.401Z,0.00
2018-02-13T02:39:52.419Z,0.00
2018-02-13T02:40:52.438Z,0.00
2018-02-13T02:41:52.460Z,0.00
2018-02-13T02:42:52.483Z,0.00
2018-02-13T02:43:52.505Z,0.00
2018-02-13T02:44:52.526Z,0.00
2018-02-13T02:45:52.546Z,0.00
2018-02-13T02:46:52.570Z,0.00
2018-02-13T02:47:52.591Z,0.00
2018-02-13T02:48:52.612Z,0.00
2018-02-13T02:49:52.637Z,0.00
2018-02-13T02:50:52.656Z,0.00
2018-02-13T02:51:52.678Z,0.00
2018-02-13T02:52:52.699Z,0.00
2018-02-13T02:53:52.721Z,0.00
2018-02-13T02:54:52.743Z,0.00
2018-02-13T02:55:52.766Z,0.00
2018-02-13T02:56:52.786Z,0.00
2018-02-13T02:57:52.808Z,0.00
2018-02-13T02:58:52.830Z,0.00
2018-02-13T02:59:52.851Z,0.00
2018-02-13T03:00:52.872Z,0.00
2018-02-13T03:01:52.895Z,0.00
2018-02-13T03:02:52.917Z,0.00
2018-02-13T03:03:52.939Z,0.00
2018-02-13T03:04:52.960Z,0.00
2018-02-13T03:05:52.985Z,0.00
2018-02-13T03:06:53.002Z,0.00
2018-02-13T03:07:53.025Z,0.00
2018-02-13T03:08:53.048Z,0.00
2018-02-13T03:09:53.068Z,0.00
2018-02-13T03:10:53.090Z,0.00
2018-02-13T03:11:53.113Z,0.00
2018-02-13T03:12:53.133Z,0.00
2018-02-13T03:13:53.154Z,0.00
2018-02-13T03:14:53.176Z,0.00
2018-02-13T03:15:53.197Z,0.00
2018-02-13T03:16:53.218Z,0.00
2018-02-13T03:17:53.242Z,0.00
2018-02-13T03:18:53.263Z,0.00
2018-02-13T03:19:53.284Z,0.00
2018-02-13T03:20:53.305Z,0.00
2018-02-13T03:21:53.328Z,0.00
2018-02-13T03:22:53.349Z,0.00
2018-02-13T03:23:53.370Z,0.00
2018-02-13T03:24:53.402Z,0.00
2018-02-13T03:25:53.416Z,0.00
2018-02-13T03:26:53.435Z,0.00
2018-02-13T03:27:53.457Z,0.00
2018-02-13T03:28:53.478Z,0.00
2018-02-13T03:29:53.500Z,0.00
2018-02-13T03:30:53.524Z,0.00
2018-02-13T03:31:53.543Z,0.00
2018-02-13T03:32:53.565Z,0.00
2018-02-13T03:33:53.586Z,0.00
2018-02-13T03:34:53.606Z,0.00
2018-02-13T03:35:53.629Z,0.00
2018-02-13T03:36:53.653Z,0.00
2018-02-13T03:37:53.671Z,0.00
2018-02-13T03:38:53.695Z,0.00
2018-02-13T03:39:53.716Z,0.00
2018-02-13T03:40:53.737Z,0.00
2018-02-13T03:41:53.758Z,0.00
2018-02-13T03:42:53.830Z,0.00
2018-02-13T03:43:53.802Z,0.00
2018-02-13T03:44:53.822Z,0.00
2018-02-13T03:45:53.846Z,0.00
2018-02-13T03:46:53.867Z,0.00
2018-02-13T03:47:53.949Z,0.00
2018-02-13T03:48:53.907Z,0.00
2018-02-13T03:49:53.929Z,0.00
2018-02-13T03:50:53.954Z,0.00
2018-02-13T03:51:53.972Z,0.00
2018-02-13T03:52:53.999Z,0.00
2018-02-13T03:53:54.015Z,0.00
2018-02-13T03:54:54.037Z,0.00
2018-02-13T03:55:54.062Z,0.00
2018-02-13T03:56:54.078Z,0.00
2018-02-13T03:57:54.100Z,0.00
2018-02-13T03:58:54.124Z,0.00
2018-02-13T03:59:54.143Z,0.00
2018-02-13T04:00:54.165Z,0.00
2018-02-13T04:01:54.187Z,0.00
2018-02-13T04:02:54.208Z,0.00
2018-02-13T04:03:54.229Z,0.00
2018-02-13T04:04:54.251Z,0.00
2018-02-13T04:05:54.271Z,0.00
2018-02-13T04:06:54.294Z,0.00
2018-02-13T04:07:54.316Z,0.00
2018-02-13T04:08:54.337Z,0.00
2018-02-13T04:09:54.358Z,0.00
2018-02-13T04:10:54.380Z,0.00
2018-02-13T04:11:54.400Z,0.00
2018-02-13T04:12:54.421Z,0.00
2018-02-13T04:13:54.444Z,0.00
2018-02-13T04:14:54.465Z,0.00
2018-02-13T04:15:54.487Z,0.00
2018-02-13T04:16:54.508Z,0.00
2018-02-13T04:17:54.528Z,0.00
2018-02-13T04:18:54.553Z,0.00
2018-02-13T04:19:54.574Z,0.00
2018-02-13T04:20:54.592Z,0.00
2018-02-13T04:21:54.614Z,0.00
2018-02-13T04:22:54.636Z,0.00
2018-02-13T04:23:54.661Z,0.00
2018-02-13T04:24:54.678Z,0.00
2018-02-13T04:25:54.700Z,0.00
2018-02-13T04:26:54.721Z,0.00
2018-02-13T04:27:54.743Z,0.00
2018-02-13T04:28:54.766Z,0.00
2018-02-13T04:29:54.787Z,0.00
2018-02-13T04:30:54.816Z,0.00
2018-02-13T04:31:54.829Z,0.00
2018-02-13T04:32:54.872Z,0.00
2018-02-13T04:33:54.921Z,0.00
2018-02-13T04:34:54.895Z,0.00
2018-02-13T04:35:54.916Z,0.00
2018-02-13T04:36:54.935Z,0.00
2018-02-13T04:37:54.957Z,0.00
2018-02-13T04:38:54.978Z,0.00
2018-02-13T04:39:55.000Z,0.00
2018-02-13T04:40:55.020Z,0.00
2018-02-13T04:41:55.042Z,0.00
2018-02-13T04:42:55.065Z,0.00
2018-02-13T04:43:55.136Z,0.00
2018-02-13T04:44:55.106Z,0.00
2018-02-13T04:45:55.126Z,0.00
2018-02-13T04:46:55.149Z,0.00
2018-02-13T04:47:55.172Z,0.00
2018-02-13T04:48:55.191Z,0.00
2018-02-13T04:49:55.212Z,0.00
2018-02-13T04:50:55.234Z,0.00
2018-02-13T04:51:55.255Z,0.00
2018-02-13T04:52:55.276Z,0.00
2018-02-13T04:53:55.297Z,0.00
2018-02-13T04:54:55.319Z,0.00
2018-02-13T04:55:55.341Z,0.00
2018-02-13T04:56:55.360Z,0.00
2018-02-13T04:57:55.382Z,0.00
2018-02-13T04:58:55.404Z,0.00
2018-02-13T04:59:55.424Z,0.00
2018-02-13T05:00:55.446Z,0.00
2018-02-13T05:01:55.467Z,0.00
2018-02-13T05:02:55.488Z,0.00
2018-02-13T05:03:55.509Z,0.00
2018-02-13T05:04:55.531Z,0.00
2018-02-13T05:05:55.552Z,0.00
2018-02-13T05:06:55.573Z,0.00
2018-02-13T05:07:55.595Z,0.00
2018-02-13T05:08:55.617Z,0.00
2018-02-13T05:09:55.637Z,0.00
2018-02-13T05:10:55.662Z,0.00
2018-02-13T05:11:55.680Z,0.00
2018-02-13T05:12:55.700Z,0.00
2018-02-13T05:13:55.722Z,0.00
2018-02-13T05:14:55.746Z,0.00
2018-02-13T05:15:55.766Z,0.00
2018-02-13T05:16:55.785Z,0.00
2018-02-13T05:17:55.805Z,0.00
2018-02-13T05:18:55.829Z,0.00
2018-02-13T05:19:55.851Z,0.00
2018-02-13T05:20:55.871Z,0.00
2018-02-13T05:21:55.892Z,0.00
2018-02-13T05:22:55.912Z,0.00
2018-02-13T05:23:55.936Z,0.00
2018-02-13T05:24:55.955Z,0.00
2018-02-13T05:25:55.975Z,0.00
2018-02-13T05:26:55.998Z,0.00
2018-02-13T05:27:56.020Z,0.00
2018-02-13T05:28:56.040Z,0.00
2018-02-13T05:29:56.061Z,0.00
2018-02-13T05:30:56.083Z,0.00
2018-02-13T05:31:56.103Z,0.00
2018-02-13T05:32:56.128Z,0.00
2018-02-13T05:33:56.146Z,0.00
2018-02-13T05:34:56.168Z,0.00
2018-02-13T05:35:56.189Z,0.00
2018-02-13T05:36:56.210Z,0.00
2018-02-13T05:37:56.235Z,0.00
2018-02-13T05:38:56.252Z,0.00
2018-02-13T05:39:56.276Z,0.00
2018-02-13T05:40:56.294Z,0.00
2018-02-13T05:41:56.316Z,0.00
2018-02-13T05:42:56.338Z,0.00
2018-02-13T05:43:56.359Z,0.00
2018-02-13T05:44:56.379Z,0.00
2018-02-13T05:45:56.401Z,0.00
2018-02-13T05:46:56.421Z,0.00
2018-02-13T05:47:56.445Z,0.00
2018-02-13T05:48:56.465Z,0.00
2018-02-13T05:49:56.485Z,0.00
2018-02-13T05:50:56.528Z,0.00
2018-02-13T05:51:56.529Z,0.00
2018-02-13T05:52:56.549Z,0.00
2018-02-13T05:53:56.570Z,0.00
2018-02-13T05:54:56.592Z,0.00
2018-02-13T05:55:56.613Z,0.00
2018-02-13T05:56:56.652Z,0.00
2018-02-13T05:57:56.656Z,0.00
2018-02-13T05:58:56.676Z,0.00
2018-02-13T05:59:56.699Z,0.00
2018-02-13T06:00:56.721Z,0.00
2018-02-13T06:01:56.740Z,0.00
2018-02-13T06:02:56.762Z,0.00
2018-02-13T06:03:56.785Z,0.00
2018-02-13T06:04:56.804Z,0.00
2018-02-13T06:05:56.825Z,0.00
2018-02-13T06:06:56.890Z,0.00
2018-02-13T06:07:56.868Z,0.00
2018-02-13T06:08:56.888Z,0.00
2018-02-13T06:09:56.909Z,0.00
2018-02-13T06:10:56.931Z,0.00
2018-02-13T06:11:56.954Z,0.00
2018-02-13T06:12:56.975Z,0.00
2018-02-13T06:13:56.994Z,0.00
2018-02-13T06:14:57.016Z,0.00
2018-02-13T06:15:57.037Z,0.00
2018-02-13T06:16:57.057Z,0.00
2018-02-13T06:17:57.079Z,0.00
2018-02-13T06:18:57.099Z,0.00
2018-02-13T06:19:57.121Z,0.00
2018-02-13T06:20:57.142Z,0.00
2018-02-13T06:21:57.163Z,0.00
2018-02-13T06:22:57.184Z,0.00
2018-02-13T06:23:57.206Z,0.00
2018-02-13T06:24:57.226Z,0.00
2018-02-13T06:25:57.249Z,0.00
2018-02-13T06:26:57.268Z,0.00
2018-02-13T06:27:57.291Z,0.00
2018-02-13T06:28:57.311Z,0.00
2018-02-13T06:29:57.332Z,0.00
2018-02-13T06:30:57.353Z,0.00
2018-02-13T06:31:57.375Z,0.00
2018-02-13T06:32:57.394Z,5.63
2018-02-13T06:33:57.416Z,5.63
2018-02-13T06:34:57.437Z,5.63
2018-02-13T06:35:57.458Z,5.63
2018-02-13T06:36:57.479Z,5.63
2018-02-13T06:37:57.501Z,5.63
2018-02-13T06:38:57.522Z,11.25
2018-02-13T06:39:57.543Z,11.25
2018-02-13T06:40:57.563Z,11.25
2018-02-13T06:41:57.583Z,11.25
2018-02-13T06:42:57.606Z,11.25
2018-02-13T06:43:57.627Z,16.88
2018-02-13T06:44:57.648Z,16.88
2018-02-13T06:45:57.669Z,16.88
2018-02-13T06:46:57.690Z,16.88
2018-02-13T06:47:57.710Z,16.88
2018-02-13T06:48:57.732Z,22.50
2018-02-13T06:49:57.754Z,22.50
2018-02-13T06:50:57.774Z,22.50
2018-02-13T06:51:57.797Z,22.50
2018-02-13T06:52:57.817Z,28.13
2018-02-13T06:53:57.838Z,28.13
2018-02-13T06:54:57.861Z,28.13
2018-02-13T06:55:57.881Z,33.75
2018-02-13T06:56:57.905Z,33.75
2018-02-13T06:57:57.925Z,33.75
2018-02-13T06:58:57.944Z,33.75
2018-02-13T06:59:57.966Z,39.38
2018-02-13T07:00:57.988Z,39.38
2018-02-13T07:01:58.008Z,45.00
2018-02-13T07:02:58.030Z,45.00
2018-02-13T07:03:58.052Z,50.63
2018-02-13T07:04:58.072Z,50.63
2018-02-13T07:05:58.094Z,56.25
2018-02-13T07:06:58.117Z,56.25
2018-02-13T07:07:58.137Z,56.25
2018-02-13T07:08:58.157Z,56.25
2018-02-13T07:09:58.228Z,61.88
2018-02-13T07:10:58.202Z,61.88
2018-02-13T07:11:58.226Z,67.50
2018-02-13T07:12:58.245Z,67.50
2018-02-13T07:13:58.265Z,73.13
2018-02-13T07:14:58.288Z,73.13
2018-02-13T07:15:58.310Z,78.75
2018-02-13T07:16:58.345Z,78.75
2018-02-13T07:17:58.373Z,84.38
2018-02-13T07:18:58.375Z,84.38
2018-02-13T07:19:58.397Z,90.00
2018-02-13T07:20:58.431Z,90.00
2018-02-13T07:21:58.440Z,95.63
2018-02-13T07:22:58.463Z,95.63
2018-02-13T07:23:58.492Z,95.63
2018-02-13T07:24:58.506Z,95.63
2018-02-13T07:25:58.529Z,101.25
2018-02-13T07:26:58.551Z,101.25
2018-02-13T07:27:58.575Z,106.88
2018-02-13T07:28:58.594Z,106.88
2018-02-13T07:29:58.617Z,112.50
2018-02-13T07:30:58.639Z,112.50
2018-02-13T07:31:58.662Z,118.13
2018-02-13T07:32:58.684Z,123.75
2018-02-13T07:33:58.710Z,123.75
2018-02-13T07:34:58.729Z,129.38
2018-02-13T07:35:58.751Z,135.00
2018-02-13T07:36:58.773Z,135.00
2018-02-13T07:37:58.796Z,135.00
2018-02-13T07:38:58.819Z,140.63
2018-02-13T07:39:58.842Z,140.63
2018-02-13T07:40:58.864Z,146.25
2018-02-13T07:41:58.887Z,151.88
2018-02-13T07:42:58.912Z,163.13
2018-02-13T07:43:58.934Z,168.75
2018-02-13T07:44:58.956Z,180.00
2018-02-13T07:45:58.979Z,180.00
2018-02-13T07:46:59.003Z,185.63
2018-02-13T07:47:59.025Z,191.25
2018-02-13T07:48:59.048Z,191.25
2018-02-13T07:49:59.072Z,202.50
2018-02-13T07:50:59.095Z,196.88
2018-02-13T07:51:59.122Z,202.50
2018-02-13T07:52:59.142Z,202.50
2018-02-13T07:53:59.167Z,202.50
2018-02-13T07:54:59.190Z,208.13
2018-02-13T07:55:59.213Z,219.38
2018-02-13T07:56:59.237Z,225.00
2018-02-13T07:57:59.261Z,236.25
2018-02-13T07:58:59.286Z,241.88
2018-02-13T07:59:59.310Z,247.50
2018-02-13T08:00:59.333Z,247.50
2018-02-13T08:01:59.359Z,253.13
2018-02-13T08:02:59.382Z,264.38
2018-02-13T08:03:59.407Z,275.63
2018-02-13T08:04:59.431Z,281.25
2018-02-13T08:05:59.456Z,281.25
2018-02-13T08:06:59.481Z,292.50
2018-02-13T08:07:59.507Z,298.13
2018-02-13T08:08:59.532Z,303.75
2018-02-13T08:09:59.555Z,309.38
2018-02-13T08:10:59.582Z,315.00
2018-02-13T08:11:59.608Z,320.63
2018-02-13T08:12:59.651Z,326.25
2018-02-13T08:13:59.659Z,331.88
2018-02-13T08:14:59.777Z,337.50
2018-02-13T08:15:59.711Z,343.13
2018-02-13T08:16:59.736Z,354.38
2018-02-13T08:17:59.763Z,360.00
2018-02-13T08:18:59.789Z,360.00
2018-02-13T08:19:59.816Z,382.50
2018-02-13T08:20:59.841Z,438.75
2018-02-13T08:21:59.870Z,523.13
2018-02-13T08:22:59.895Z,568.13
2018-02-13T08:23:59.922Z,596.25
2018-02-13T08:24:59.948Z,624.38
2018-02-13T08:25:59.975Z,641.25
2018-02-13T08:27:00.006Z,675.00
2018-02-13T08:28:00.031Z,686.25
2018-02-13T08:29:00.057Z,691.88
2018-02-13T08:30:00.086Z,731.25
2018-02-13T08:31:00.112Z,725.63
2018-02-13T08:32:00.139Z,742.50
2018-02-13T08:33:00.166Z,798.75
2018-02-13T08:34:00.194Z,832.50
2018-02-13T08:35:00.222Z,815.63
2018-02-13T08:36:00.253Z,787.50
2018-02-13T08:37:00.278Z,793.13
2018-02-13T08:38:00.307Z,793.13
2018-02-13T08:39:00.336Z,810.00
2018-02-13T08:40:00.364Z,838.13
2018-02-13T08:41:00.390Z,838.13
2018-02-13T08:42:00.419Z,855.00
2018-02-13T08:43:00.449Z,855.00
2018-02-13T08:44:00.480Z,888.75
2018-02-13T08:45:00.543Z,922.50
2018-02-13T08:46:00.537Z,916.88
2018-02-13T08:47:00.566Z,933.75
2018-02-13T08:48:00.599Z,939.38
2018-02-13T08:49:00.623Z,933.75
2018-02-13T08:50:00.654Z,916.88
2018-02-13T08:51:00.685Z,928.13
2018-02-13T08:52:00.714Z,956.25
2018-02-13T08:53:00.743Z,956.25
2018-02-13T08:54:00.774Z,967.50
2018-02-13T08:55:00.804Z,990.00
2018-02-13T08:56:00.834Z,990.00
2018-02-13T08:57:00.864Z,984.38
2018-02-13T08:58:00.895Z,1006.88
2018-02-13T08:59:00.927Z,1018.13
2018-02-13T09:00:00.958Z,1035.00
2018-02-13T09:01:00.989Z,1051.88
2018-02-13T09:02:01.021Z,1057.50
2018-02-13T09:03:01.052Z,1074.38
2018-02-13T09:04:01.084Z,1091.25
2018-02-13T09:05:01.116Z,1096.88
2018-02-13T09:06:01.148Z,1108.13
2018-02-13T09:07:01.181Z,1125.00
2018-02-13T09:08:01.213Z,1141.88
2018-02-13T09:09:01.300Z,1147.50
2018-02-13T09:10:01.278Z,1153.13
2018-02-13T09:11:01.313Z,1231.88
2018-02-13T09:12:01.345Z,1220.63
2018-02-13T09:13:01.377Z,1226.25
2018-02-13T09:14:01.411Z,1265.63
2018-02-13T09:15:01.445Z,1293.75
2018-02-13T09:16:01.479Z,1310.63
2018-02-13T09:17:01.512Z,1327.50
2018-02-13T09:18:01.546Z,1321.88
2018-02-13T09:19:01.581Z,1305.00
2018-02-13T09:20:01.615Z,1293.75
2018-02-13T09:21:01.649Z,1293.75
2018-02-13T09:22:01.684Z,1299.38
2018-02-13T09:23:01.719Z,1282.50
2018-02-13T09:24:01.756Z,1260.00
2018-02-13T09:25:01.789Z,1321.88
2018-02-13T09:26:01.825Z,1338.75
2018-02-13T09:27:01.859Z,1344.38
2018-02-13T09:28:01.895Z,1389.38
2018-02-13T09:29:01.930Z,1372.50
2018-02-13T09:30:01.966Z,1411.88
2018-02-13T09:31:02.004Z,1456.88
2018-02-13T09:32:02.038Z,1473.75
2018-02-13T09:33:02.074Z,1462.50
2018-02-13T09:34:02.111Z,1434.38
2018-02-13T09:35:02.148Z,1395.00
2018-02-13T09:36:02.184Z,1411.88
2018-02-13T09:37:02.221Z,1423.13
2018-02-13T09:38:02.258Z,1423.13
2018-02-13T09:39:02.296Z,1406.25
2018-02-13T09:40:02.333Z,1389.38
2018-02-13T09:41:02.370Z,1411.88
2018-02-13T09:42:02.409Z,1507.50
2018-02-13T09:43:02.447Z,1541.25
2018-02-13T09:44:02.484Z,1541.25
2018-02-13T09:45:02.523Z,1513.13
2018-02-13T09:46:02.561Z,1473.75
2018-02-13T09:47:02.601Z,1535.63
2018-02-13T09:48:02.640Z,1591.88
2018-02-13T09:49:02.678Z,1597.50
2018-02-13T09:50:02.717Z,1597.50
2018-02-13T09:51:02.756Z,1575.00
2018-02-13T09:52:02.797Z,1535.63
2018-02-13T09:53:02.835Z,1501.88
2018-02-13T09:54:02.875Z,1496.25
2018-02-13T09:55:02.914Z,1535.63
2018-02-13T09:56:02.955Z,1597.50
2018-02-13T09:57:02.994Z,1614.38
2018-02-13T09:58:03.033Z,1580.63
2018-02-13T09:59:03.074Z,1462.50
2018-02-13T10:00:03.114Z,1479.38
2018-02-13T10:01:03.155Z,1552.50
2018-02-13T10:02:03.196Z,1569.38
2018-02-13T10:03:03.234Z,1614.38
2018-02-13T10:04:03.277Z,1653.75
2018-02-13T10:05:03.317Z,1665.00
2018-02-13T10:06:03.360Z,1726.88
2018-02-13T10:07:03.398Z,1749.38
2018-02-13T10:08:03.440Z,1800.00
2018-02-13T10:09:03.482Z,1811.25
2018-02-13T10:10:03.524Z,1816.88
2018-02-13T10:11:03.564Z,1828.13
2018-02-13T10:12:03.605Z,1839.38
2018-02-13T10:13:03.646Z,1878.75
2018-02-13T10:14:03.687Z,1906.88
2018-02-13T10:15:03.730Z,1906.88
2018-02-13T10:16:03.781Z,1878.75
2018-02-13T10:17:03.812Z,1507.50
2018-02-13T10:18:03.861Z,1243.13
2018-02-13T10:19:03.899Z,1231.88
2018-02-13T10:20:03.943Z,1209.38
2018-02-13T10:21:03.983Z,1186.88
2018-02-13T10:22:04.026Z,1175.63
2018-02-13T10:23:04.068Z,1164.38
2018-02-13T10:24:04.112Z,1153.13
2018-02-13T10:25:04.152Z,1181.25
2018-02-13T10:26:04.196Z,1344.38
2018-02-13T10:27:04.239Z,1760.63
2018-02-13T10:28:04.283Z,1968.75
2018-02-13T10:29:04.324Z,1946.25
2018-02-13T10:30:04.366Z,1974.38
2018-02-13T10:31:04.411Z,2002.50
2018-02-13T10:32:04.454Z,1991.25
2018-02-13T10:33:04.498Z,2002.50
2018-02-13T10:34:04.540Z,2086.88
2018-02-13T10:35:04.584Z,2092.50
2018-02-13T10:36:04.629Z,2070.00
2018-02-13T10:37:04.669Z,2070.00
2018-02-13T10:38:04.714Z,2092.50
2018-02-13T10:39:04.758Z,2143.13
2018-02-13T10:40:04.799Z,2165.63
2018-02-13T10:41:04.843Z,2182.50
2018-02-13T10:42:04.890Z,2176.88
2018-02-13T10:43:04.931Z,2205.00
2018-02-13T10:44:04.975Z,2199.38
2018-02-13T10:45:05.018Z,2244.38
2018-02-13T10:46:05.064Z,2255.63
2018-02-13T10:47:05.106Z,2205.00
2018-02-13T10:48:05.197Z,2188.13
2018-02-13T10:49:05.195Z,2120.63
2018-02-13T10:50:05.240Z,2126.25
2018-02-13T10:51:05.284Z,2176.88
2018-02-13T10:52:05.328Z,2250.00
2018-02-13T10:53:05.373Z,2238.75
2018-02-13T10:54:05.420Z,2188.13
2018-02-13T10:55:05.464Z,2143.13
2018-02-13T10:56:05.509Z,2115.00
2018-02-13T10:57:05.553Z,2171.25
2018-02-13T10:58:05.598Z,2171.25
2018-02-13T10:59:05.698Z,2193.75
2018-02-13T11:00:05.687Z,2188.13
2018-02-13T11:01:05.734Z,2188.13
2018-02-13T11:02:05.777Z,2188.13
2018-02-13T11:03:05.822Z,2216.25
2018-02-13T11:04:05.871Z,2233.13
2018-02-13T11:05:05.912Z,2238.75
2018-02-13T11:06:05.958Z,2272.50
2018-02-13T11:07:06.003Z,2295.00
2018-02-13T11:08:06.049Z,2351.25
2018-02-13T11:09:06.093Z,2351.25
2018-02-13T11:10:06.138Z,2317.50
2018-02-13T11:11:06.184Z,2317.50
2018-02-13T11:12:06.233Z,2356.88
2018-02-13T11:13:06.276Z,2323.13
2018-02-13T11:14:06.321Z,2283.75
2018-02-13T11:15:06.367Z,2193.75
2018-02-13T11:16:06.412Z,2238.75
2018-02-13T11:17:06.456Z,2295.00
2018-02-13T11:18:06.502Z,2356.88
2018-02-13T11:19:06.552Z,2401.88
2018-02-13T11:20:06.594Z,2379.38
2018-02-13T11:21:06.638Z,2385.00
2018-02-13T11:22:06.685Z,2373.75
2018-02-13T11:23:06.731Z,2351.25
2018-02-13T11:24:06.777Z,2345.63
2018-02-13T11:25:06.822Z,2362.50
2018-02-13T11:26:06.867Z,2401.88
2018-02-13T11:27:06.922Z,2373.75
2018-02-13T11:28:06.962Z,2385.00
2018-02-13T11:29:07.004Z,2407.50
2018-02-13T11:30:07.051Z,2418.75
2018-02-13T11:31:07.096Z,2475.00
2018-02-13T11:32:07.142Z,2486.25
2018-02-13T11:33:07.187Z,2469.38
2018-02-13T11:34:07.235Z,2486.25
2018-02-13T11:35:07.279Z,2525.63
2018-02-13T11:36:07.326Z,2632.50
2018-02-13T11:37:07.371Z,2716.88
2018-02-13T11:38:07.417Z,2716.88
2018-02-13T11:39:07.463Z,2638.13
2018-02-13T11:40:07.512Z,2576.25
2018-02-13T11:41:07.557Z,2559.38
2018-02-13T11:42:07.604Z,2565.00
2018-02-13T11:43:07.649Z,2435.63
2018-02-13T11:44:07.698Z,2261.25
2018-02-13T11:45:07.742Z,2131.88
2018-02-13T11:46:07.788Z,2008.13
2018-02-13T11:47:07.835Z,1884.38
2018-02-13T11:48:07.881Z,1833.75
2018-02-13T11:49:07.927Z,1243.13
2018-02-13T11:50:07.974Z,1766.25
2018-02-13T11:51:08.020Z,1766.25
2018-02-13T11:52:08.068Z,1755.00
2018-02-13T11:53:08.113Z,1715.63
2018-02-13T11:54:08.158Z,990.00
2018-02-13T11:55:08.206Z,1715.63
2018-02-13T11:56:08.252Z,1721.25
2018-02-13T11:57:08.298Z,1710.00
2018-02-13T11:58:08.345Z,1698.75
2018-02-13T11:59:08.391Z,1693.13
2018-02-13T12:00:08.437Z,1726.88
2018-02-13T12:01:08.482Z,1738.13
2018-02-13T12:02:08.530Z,1743.75
2018-02-13T12:03:08.577Z,1777.50
2018-02-13T12:04:08.623Z,1822.50
2018-02-13T12:05:08.669Z,1805.63
2018-02-13T12:06:08.716Z,1800.00
2018-02-13T12:07:08.761Z,1816.88
2018-02-13T12:08:08.848Z,1794.38
2018-02-13T12:09:08.853Z,1788.75
2018-02-13T12:10:08.900Z,1783.13
2018-02-13T12:11:08.947Z,1816.88
2018-02-13T12:12:08.993Z,1850.63
2018-02-13T12:13:09.038Z,1861.88
2018-02-13T12:14:09.109Z,1861.88
2018-02-13T12:15:09.131Z,1878.75
2018-02-13T12:16:09.202Z,1901.25
2018-02-13T12:17:09.226Z,1912.50
2018-02-13T12:18:09.270Z,1980.00
2018-02-13T12:19:09.317Z,2041.88
2018-02-13T12:20:09.369Z,2070.00
2018-02-13T12:21:09.409Z,2081.25
2018-02-13T12:22:09.456Z,2081.25
2018-02-13T12:23:09.503Z,2047.50
2018-02-13T12:24:09.551Z,2131.88
2018-02-13T12:25:09.597Z,2131.88
2018-02-13T12:26:09.643Z,2109.38
2018-02-13T12:27:09.691Z,2165.63
2018-02-13T12:28:09.738Z,2199.38
2018-02-13T12:29:09.784Z,2193.75
2018-02-13T12:30:09.833Z,2306.25
2018-02-13T12:31:09.879Z,2351.25
2018-02-13T12:32:09.927Z,2323.13
2018-02-13T12:33:09.974Z,2261.25
2018-02-13T12:34:10.021Z,2233.13
2018-02-13T12:35:10.070Z,2283.75
2018-02-13T12:36:10.118Z,2278.13
2018-02-13T12:37:10.164Z,2295.00
2018-02-13T12:38:10.210Z,2283.75
2018-02-13T12:39:10.260Z,2289.38
2018-02-13T12:40:10.308Z,2334.38
2018-02-13T12:41:10.354Z,2362.50
2018-02-13T12:42:10.403Z,2328.75
2018-02-13T12:43:10.450Z,2328.75
2018-02-13T12:44:10.498Z,2311.88
2018-02-13T12:45:10.549Z,2300.63
2018-02-13T12:46:10.592Z,2328.75
2018-02-13T12:47:10.641Z,2396.25
2018-02-13T12:48:10.686Z,2362.50
2018-02-13T12:49:10.732Z,2379.38
2018-02-13T12:50:10.779Z,2373.75
2018-02-13T12:51:10.827Z,2401.88
2018-02-13T12:52:10.873Z,2401.88
2018-02-13T12:53:10.918Z,2379.38
2018-02-13T12:54:10.966Z,2401.88
2018-02-13T12:55:11.011Z,2418.75
2018-02-13T12:56:11.119Z,2407.50
2018-02-13T12:57:11.105Z,2435.63
2018-02-13T12:58:11.152Z,2469.38